Irving, New York
Current Conditions -  °F | °C
As of 2:53 PM on Tuesday 21 Oct 2014 (Local Time) from KDKK Reporting Station
Overcast Overcast  
Wind Chill: 53°   Ceiling: 3500
Heat Index: 53°   Visibility: 10mi
Dew Point: 47°   Wind: 7mph
Humidity: 80%   Direction: 270°W
Pressure: 29.88"   Gusts: NA
Location:  42.57°N, 79.11°W
Report Text: KDKK 211853Z AUTO 27006KT 10SM OVC035 12/08 A2988 RMK AO2 SLP121 T01170083
Loading
Personal Weather Stations






























Interactive Weather Map
Tropical Storm Tracking
New forecast layout! Learn more

10-Day Weather Forecast

Advertisements
Track Severe Weather on mobile